Terminal Aerodrome Forecast
Issued by NWS

Current Version | Previous Version | Text Only | Print | Product List | Glossary On
Versions: 1 2 3 4 5 6 7 8 9 10 11 12 13 14 15 16 17 18 19 20 21 22
000
FTUS43 KABR 221200 AAB
TAFATY
TAF AMD
KATY 221246Z 2213/2312 03006KT 3SM BR BKN002 BKN020
     FM221300 03006KT 4SM BR SCT002 BKN020
     FM221400 02006KT P6SM SCT004 BKN020
     FM221500 02006KT P6SM SCT025 SCT150
     FM221800 03006KT P6SM FEW030 SCT120
     FM230600 06007KT P6SM BKN080 OVC110=

USA.gov is the U.S. government's official web portal to all federal, state and local government web resources and services.